sensor_id;sensor_type;location;lat;lon;timestamp;temperature;humidity
34985;DHT22;21190;58.750;17.004;2024-01-30T00:01:25;3.70;99.90
34985;DHT22;21190;58.750;17.004;2024-01-30T00:03:52;3.70;99.90
34985;DHT22;21190;58.750;17.004;2024-01-30T00:06:19;3.70;99.90
34985;DHT22;21190;58.750;17.004;2024-01-30T00:08:50;3.70;99.90
34985;DHT22;21190;58.750;17.004;2024-01-30T00:11:17;3.60;99.90
34985;DHT22;21190;58.750;17.004;2024-01-30T00:13:44;3.60;99.90
34985;DHT22;21190;58.750;17.004;2024-01-30T00:16:22;3.60;99.90
34985;DHT22;21190;58.750;17.004;2024-01-30T00:18:51;3.50;99.90
34985;DHT22;21190;58.750;17.004;2024-01-30T00:21:19;3.50;99.90
34985;DHT22;21190;58.750;17.004;2024-01-30T00:23:47;3.60;99.90
34985;DHT22;21190;58.750;17.004;2024-01-30T00:26:14;3.60;99.90
34985;DHT22;21190;58.750;17.004;2024-01-30T00:28:43;3.60;99.90
34985;DHT22;21190;58.750;17.004;2024-01-30T00:31:10;3.60;99.90
34985;DHT22;21190;58.750;17.004;2024-01-30T00:33:40;3.60;99.90
34985;DHT22;21190;58.750;17.004;2024-01-30T00:36:08;3.60;99.90
34985;DHT22;21190;58.750;17.004;2024-01-30T00:38:36;3.60;99.90
34985;DHT22;21190;58.750;17.004;2024-01-30T00:41:04;3.70;99.90
34985;DHT22;21190;58.750;17.004;2024-01-30T00:43:31;3.70;99.90
34985;DHT22;21190;58.750;17.004;2024-01-30T00:45:59;3.80;99.90
34985;DHT22;21190;58.750;17.004;2024-01-30T00:48:26;3.80;99.90
34985;DHT22;21190;58.750;17.004;2024-01-30T00:50:53;3.80;99.90
34985;DHT22;21190;58.750;17.004;2024-01-30T00:53:21;3.80;99.90
34985;DHT22;21190;58.750;17.004;2024-01-30T00:55:48;3.80;99.90
34985;DHT22;21190;58.750;17.004;2024-01-30T00:58:15;3.70;99.90
34985;DHT22;21190;58.750;17.004;2024-01-30T01:00:43;3.70;99.90
34985;DHT22;21190;58.750;17.004;2024-01-30T01:03:10;3.70;99.90
34985;DHT22;21190;58.750;17.004;2024-01-30T01:05:37;3.70;99.90
34985;DHT22;21190;58.750;17.004;2024-01-30T01:08:04;3.70;99.90
34985;DHT22;21190;58.750;17.004;2024-01-30T01:10:31;3.70;99.90
34985;DHT22;21190;58.750;17.004;2024-01-30T01:12:59;3.70;99.90
34985;DHT22;21190;58.750;17.004;2024-01-30T01:15:26;3.70;99.90
34985;DHT22;21190;58.750;17.004;2024-01-30T01:17:56;3.80;99.90
34985;DHT22;21190;58.750;17.004;2024-01-30T01:20:23;3.80;99.90
34985;DHT22;21190;58.750;17.004;2024-01-30T01:22:50;3.80;99.90
34985;DHT22;21190;58.750;17.004;2024-01-30T01:25:19;3.80;99.90
34985;DHT22;21190;58.750;17.004;2024-01-30T01:27:46;3.80;99.90
34985;DHT22;21190;58.750;17.004;2024-01-30T01:30:18;3.80;99.90
34985;DHT22;21190;58.750;17.004;2024-01-30T01:32:49;3.80;99.90
34985;DHT22;21190;58.750;17.004;2024-01-30T01:35:24;3.80;99.90
34985;DHT22;21190;58.750;17.004;2024-01-30T01:37:53;3.80;99.90
34985;DHT22;21190;58.750;17.004;2024-01-30T01:40:25;3.80;99.90
34985;DHT22;21190;58.750;17.004;2024-01-30T01:42:53;3.80;99.90
34985;DHT22;21190;58.750;17.004;2024-01-30T01:45:21;3.80;99.90
34985;DHT22;21190;58.750;17.004;2024-01-30T01:47:50;3.80;99.90
34985;DHT22;21190;58.750;17.004;2024-01-30T01:50:18;3.80;99.90
34985;DHT22;21190;58.750;17.004;2024-01-30T01:52:50;3.80;99.90
34985;DHT22;21190;58.750;17.004;2024-01-30T01:55:20;3.80;99.90
34985;DHT22;21190;58.750;17.004;2024-01-30T01:57:52;3.80;99.90
34985;DHT22;21190;58.750;17.004;2024-01-30T02:00:20;3.80;99.90
34985;DHT22;21190;58.750;17.004;2024-01-30T02:02:47;3.80;99.90
34985;DHT22;21190;58.750;17.004;2024-01-30T02:05:16;3.80;99.90
34985;DHT22;21190;58.750;17.004;2024-01-30T02:07:43;3.80;99.90
34985;DHT22;21190;58.750;17.004;2024-01-30T02:10:11;3.80;99.90
34985;DHT22;21190;58.750;17.004;2024-01-30T02:12:39;3.80;99.90
34985;DHT22;21190;58.750;17.004;2024-01-30T02:15:07;3.80;99.90
34985;DHT22;21190;58.750;17.004;2024-01-30T02:17:35;3.80;99.90
34985;DHT22;21190;58.750;17.004;2024-01-30T02:20:02;3.70;99.90
34985;DHT22;21190;58.750;17.004;2024-01-30T02:22:33;3.70;99.90
34985;DHT22;21190;58.750;17.004;2024-01-30T02:25:02;3.70;99.90
34985;DHT22;21190;58.750;17.004;2024-01-30T02:27:29;3.60;99.90
34985;DHT22;21190;58.750;17.004;2024-01-30T02:29:57;3.60;99.90
34985;DHT22;21190;58.750;17.004;2024-01-30T02:32:24;3.50;99.90
34985;DHT22;21190;58.750;17.004;2024-01-30T02:34:51;3.50;99.90
34985;DHT22;21190;58.750;17.004;2024-01-30T02:37:19;3.40;99.90
34985;DHT22;21190;58.750;17.004;2024-01-30T02:39:46;3.40;99.90
34985;DHT22;21190;58.750;17.004;2024-01-30T02:42:13;3.30;99.90
34985;DHT22;21190;58.750;17.004;2024-01-30T02:44:40;3.20;99.90
34985;DHT22;21190;58.750;17.004;2024-01-30T02:47:07;3.20;99.90
34985;DHT22;21190;58.750;17.004;2024-01-30T02:49:35;3.20;99.90
34985;DHT22;21190;58.750;17.004;2024-01-30T02:52:02;3.20;99.90
34985;DHT22;21190;58.750;17.004;2024-01-30T02:54:30;3.30;99.90
34985;DHT22;21190;58.750;17.004;2024-01-30T02:56:57;3.30;99.90
34985;DHT22;21190;58.750;17.004;2024-01-30T02:59:24;3.20;99.90
34985;DHT22;21190;58.750;17.004;2024-01-30T03:01:52;3.20;99.90
34985;DHT22;21190;58.750;17.004;2024-01-30T03:04:19;3.20;99.90
34985;DHT22;21190;58.750;17.004;2024-01-30T03:06:46;3.20;99.90
34985;DHT22;21190;58.750;17.004;2024-01-30T03:09:17;3.20;99.90
34985;DHT22;21190;58.750;17.004;2024-01-30T03:11:45;3.20;99.90
34985;DHT22;21190;58.750;17.004;2024-01-30T03:14:12;3.30;99.90
34985;DHT22;21190;58.750;17.004;2024-01-30T03:16:40;3.30;99.90
34985;DHT22;21190;58.750;17.004;2024-01-30T03:19:07;3.30;99.90
34985;DHT22;21190;58.750;17.004;2024-01-30T03:21:37;3.20;99.90
34985;DHT22;21190;58.750;17.004;2024-01-30T03:24:05;3.30;99.90
34985;DHT22;21190;58.750;17.004;2024-01-30T03:26:32;3.30;99.90
34985;DHT22;21190;58.750;17.004;2024-01-30T03:28:59;3.30;99.90
34985;DHT22;21190;58.750;17.004;2024-01-30T03:31:26;3.30;99.90
34985;DHT22;21190;58.750;17.004;2024-01-30T03:33:54;3.30;99.90
34985;DHT22;21190;58.750;17.004;2024-01-30T03:36:21;3.40;99.90
34985;DHT22;21190;58.750;17.004;2024-01-30T03:38:48;3.40;99.90
34985;DHT22;21190;58.750;17.004;2024-01-30T03:41:15;3.40;99.90
34985;DHT22;21190;58.750;17.004;2024-01-30T03:43:43;3.40;99.90
34985;DHT22;21190;58.750;17.004;2024-01-30T03:46:12;3.50;99.90
34985;DHT22;21190;58.750;17.004;2024-01-30T03:48:39;3.40;99.90
34985;DHT22;21190;58.750;17.004;2024-01-30T03:51:07;3.40;99.90
34985;DHT22;21190;58.750;17.004;2024-01-30T03:53:34;3.40;99.90
34985;DHT22;21190;58.750;17.004;2024-01-30T03:56:01;3.40;99.90
34985;DHT22;21190;58.750;17.004;2024-01-30T03:58:29;3.40;99.90
34985;DHT22;21190;58.750;17.004;2024-01-30T04:00:57;3.50;99.90
34985;DHT22;21190;58.750;17.004;2024-01-30T04:03:24;3.50;99.90
34985;DHT22;21190;58.750;17.004;2024-01-30T04:05:52;3.40;99.90
34985;DHT22;21190;58.750;17.004;2024-01-30T04:08:19;3.40;99.90
34985;DHT22;21190;58.750;17.004;2024-01-30T04:10:47;3.40;99.90
34985;DHT22;21190;58.750;17.004;2024-01-30T04:13:14;3.40;99.90
34985;DHT22;21190;58.750;17.004;2024-01-30T04:15:41;3.50;99.90
34985;DHT22;21190;58.750;17.004;2024-01-30T04:18:09;3.40;99.90
34985;DHT22;21190;58.750;17.004;2024-01-30T04:20:36;3.40;99.90
34985;DHT22;21190;58.750;17.004;2024-01-30T04:23:03;3.40;99.90
34985;DHT22;21190;58.750;17.004;2024-01-30T04:25:30;3.40;99.90
34985;DHT22;21190;58.750;17.004;2024-01-30T04:27:58;3.40;99.90
34985;DHT22;21190;58.750;17.004;2024-01-30T04:30:25;3.30;99.90
34985;DHT22;21190;58.750;17.004;2024-01-30T04:32:52;3.20;99.90
34985;DHT22;21190;58.750;17.004;2024-01-30T04:35:20;3.20;99.90
34985;DHT22;21190;58.750;17.004;2024-01-30T04:37:52;3.20;99.90
34985;DHT22;21190;58.750;17.004;2024-01-30T04:40:21;3.10;99.90
34985;DHT22;21190;58.750;17.004;2024-01-30T04:42:48;3.10;99.90
34985;DHT22;21190;58.750;17.004;2024-01-30T04:45:15;3.10;99.90
34985;DHT22;21190;58.750;17.004;2024-01-30T04:47:43;3.00;99.90
34985;DHT22;21190;58.750;17.004;2024-01-30T04:50:10;2.90;99.90
34985;DHT22;21190;58.750;17.004;2024-01-30T04:52:37;2.90;99.90
34985;DHT22;21190;58.750;17.004;2024-01-30T04:55:04;2.80;99.90
34985;DHT22;21190;58.750;17.004;2024-01-30T04:57:32;2.80;99.90
34985;DHT22;21190;58.750;17.004;2024-01-30T05:00:00;2.90;99.90
34985;DHT22;21190;58.750;17.004;2024-01-30T05:02:27;2.80;99.90
34985;DHT22;21190;58.750;17.004;2024-01-30T05:04:55;2.90;99.90
34985;DHT22;21190;58.750;17.004;2024-01-30T05:07:22;2.90;99.90
34985;DHT22;21190;58.750;17.004;2024-01-30T05:09:49;2.90;99.90
34985;DHT22;21190;58.750;17.004;2024-01-30T05:12:16;2.90;99.90
34985;DHT22;21190;58.750;17.004;2024-01-30T05:14:43;2.90;99.90
34985;DHT22;21190;58.750;17.004;2024-01-30T05:17:11;2.90;99.90
34985;DHT22;21190;58.750;17.004;2024-01-30T05:19:39;3.00;99.90
34985;DHT22;21190;58.750;17.004;2024-01-30T05:22:07;3.00;99.90
34985;DHT22;21190;58.750;17.004;2024-01-30T05:24:34;3.00;99.90
34985;DHT22;21190;58.750;17.004;2024-01-30T05:27:01;2.90;99.90
34985;DHT22;21190;58.750;17.004;2024-01-30T05:29:29;2.90;99.90
34985;DHT22;21190;58.750;17.004;2024-01-30T05:31:56;2.90;99.90
34985;DHT22;21190;58.750;17.004;2024-01-30T05:34:23;2.90;99.90
34985;DHT22;21190;58.750;17.004;2024-01-30T05:36:50;2.90;99.90
34985;DHT22;21190;58.750;17.004;2024-01-30T05:39:17;2.90;99.90
34985;DHT22;21190;58.750;17.004;2024-01-30T05:41:45;2.90;99.90
34985;DHT22;21190;58.750;17.004;2024-01-30T05:44:12;3.00;99.90
34985;DHT22;21190;58.750;17.004;2024-01-30T05:46:39;3.00;99.90
34985;DHT22;21190;58.750;17.004;2024-01-30T05:49:06;2.90;99.90
34985;DHT22;21190;58.750;17.004;2024-01-30T05:51:33;2.90;99.90
34985;DHT22;21190;58.750;17.004;2024-01-30T05:54:01;2.90;99.90
34985;DHT22;21190;58.750;17.004;2024-01-30T05:56:30;3.00;99.90
34985;DHT22;21190;58.750;17.004;2024-01-30T05:58:57;2.90;99.90
34985;DHT22;21190;58.750;17.004;2024-01-30T06:01:24;3.00;99.90
34985;DHT22;21190;58.750;17.004;2024-01-30T06:03:52;3.00;99.90
34985;DHT22;21190;58.750;17.004;2024-01-30T06:06:19;3.00;99.90
34985;DHT22;21190;58.750;17.004;2024-01-30T06:08:46;3.10;99.90
34985;DHT22;21190;58.750;17.004;2024-01-30T06:11:13;3.20;99.90
34985;DHT22;21190;58.750;17.004;2024-01-30T06:13:40;3.20;99.90
34985;DHT22;21190;58.750;17.004;2024-01-30T06:16:10;3.20;99.90
34985;DHT22;21190;58.750;17.004;2024-01-30T06:18:38;3.20;99.90
34985;DHT22;21190;58.750;17.004;2024-01-30T06:21:06;3.20;99.90
34985;DHT22;21190;58.750;17.004;2024-01-30T06:23:35;3.10;99.90
34985;DHT22;21190;58.750;17.004;2024-01-30T06:26:03;3.20;99.90
34985;DHT22;21190;58.750;17.004;2024-01-30T06:28:30;3.10;99.90
34985;DHT22;21190;58.750;17.004;2024-01-30T06:30:57;3.00;99.90
34985;DHT22;21190;58.750;17.004;2024-01-30T06:33:24;2.90;99.90
34985;DHT22;21190;58.750;17.004;2024-01-30T06:35:52;2.90;99.90
34985;DHT22;21190;58.750;17.004;2024-01-30T06:38:19;2.90;99.90
34985;DHT22;21190;58.750;17.004;2024-01-30T06:40:46;2.80;99.90
34985;DHT22;21190;58.750;17.004;2024-01-30T06:43:13;2.80;99.90
34985;DHT22;21190;58.750;17.004;2024-01-30T06:45:41;2.80;99.90
34985;DHT22;21190;58.750;17.004;2024-01-30T06:48:09;2.70;99.90
34985;DHT22;21190;58.750;17.004;2024-01-30T06:50:36;2.70;99.90
34985;DHT22;21190;58.750;17.004;2024-01-30T06:53:03;2.80;99.90
34985;DHT22;21190;58.750;17.004;2024-01-30T06:55:31;2.80;99.90
34985;DHT22;21190;58.750;17.004;2024-01-30T06:58:02;2.70;99.90
34985;DHT22;21190;58.750;17.004;2024-01-30T07:00:29;2.70;99.90
34985;DHT22;21190;58.750;17.004;2024-01-30T07:02:57;2.70;99.90
34985;DHT22;21190;58.750;17.004;2024-01-30T07:05:24;2.70;99.90
34985;DHT22;21190;58.750;17.004;2024-01-30T07:07:52;2.60;99.90
34985;DHT22;21190;58.750;17.004;2024-01-30T07:10:19;2.60;99.90
34985;DHT22;21190;58.750;17.004;2024-01-30T07:12:46;2.60;99.90
34985;DHT22;21190;58.750;17.004;2024-01-30T07:15:14;2.60;99.90
34985;DHT22;21190;58.750;17.004;2024-01-30T07:17:44;2.60;99.90
34985;DHT22;21190;58.750;17.004;2024-01-30T07:20:11;2.70;99.90
34985;DHT22;21190;58.750;17.004;2024-01-30T07:22:43;2.70;99.90
34985;DHT22;21190;58.750;17.004;2024-01-30T07:25:11;2.70;99.90
34985;DHT22;21190;58.750;17.004;2024-01-30T07:27:38;2.70;99.90
34985;DHT22;21190;58.750;17.004;2024-01-30T07:30:06;2.70;99.90
34985;DHT22;21190;58.750;17.004;2024-01-30T07:32:33;2.70;99.90
34985;DHT22;21190;58.750;17.004;2024-01-30T07:35:01;2.70;99.90
34985;DHT22;21190;58.750;17.004;2024-01-30T07:37:35;2.70;99.90
34985;DHT22;21190;58.750;17.004;2024-01-30T07:40:03;2.70;99.90
34985;DHT22;21190;58.750;17.004;2024-01-30T07:42:31;2.70;99.90
34985;DHT22;21190;58.750;17.004;2024-01-30T07:44:58;2.70;99.90
34985;DHT22;21190;58.750;17.004;2024-01-30T07:47:25;2.80;99.90
34985;DHT22;21190;58.750;17.004;2024-01-30T07:49:53;2.80;99.90
34985;DHT22;21190;58.750;17.004;2024-01-30T07:52:21;2.80;99.90
34985;DHT22;21190;58.750;17.004;2024-01-30T07:57:43;2.80;99.90
34985;DHT22;21190;58.750;17.004;2024-01-30T08:00:11;2.90;99.90
34985;DHT22;21190;58.750;17.004;2024-01-30T08:02:38;2.90;99.90
34985;DHT22;21190;58.750;17.004;2024-01-30T08:05:06;2.90;99.90
34985;DHT22;21190;58.750;17.004;2024-01-30T08:07:33;2.90;99.90
34985;DHT22;21190;58.750;17.004;2024-01-30T08:10:00;2.90;99.90
34985;DHT22;21190;58.750;17.004;2024-01-30T08:12:27;2.90;99.90
34985;DHT22;21190;58.750;17.004;2024-01-30T08:14:54;2.80;99.90
34985;DHT22;21190;58.750;17.004;2024-01-30T08:17:21;2.80;99.90
34985;DHT22;21190;58.750;17.004;2024-01-30T08:19:49;2.70;99.90
34985;DHT22;21190;58.750;17.004;2024-01-30T08:22:16;2.80;99.90
34985;DHT22;21190;58.750;17.004;2024-01-30T08:24:43;2.80;99.90
34985;DHT22;21190;58.750;17.004;2024-01-30T08:27:11;2.80;99.90
34985;DHT22;21190;58.750;17.004;2024-01-30T08:29:39;2.80;99.90
34985;DHT22;21190;58.750;17.004;2024-01-30T08:32:06;2.80;99.90
34985;DHT22;21190;58.750;17.004;2024-01-30T08:34:34;2.80;99.90
34985;DHT22;21190;58.750;17.004;2024-01-30T08:37:01;2.80;99.90
34985;DHT22;21190;58.750;17.004;2024-01-30T08:39:28;2.80;99.90
34985;DHT22;21190;58.750;17.004;2024-01-30T08:41:56;2.80;99.90
34985;DHT22;21190;58.750;17.004;2024-01-30T08:44:23;2.80;99.90
34985;DHT22;21190;58.750;17.004;2024-01-30T08:46:50;2.80;99.90
34985;DHT22;21190;58.750;17.004;2024-01-30T08:49:18;2.90;99.90
34985;DHT22;21190;58.750;17.004;2024-01-30T08:51:45;2.90;99.90
34985;DHT22;21190;58.750;17.004;2024-01-30T08:54:13;2.90;99.90
34985;DHT22;21190;58.750;17.004;2024-01-30T08:56:40;3.00;99.90
34985;DHT22;21190;58.750;17.004;2024-01-30T08:59:07;3.00;99.90
34985;DHT22;21190;58.750;17.004;2024-01-30T09:01:37;3.00;99.90
34985;DHT22;21190;58.750;17.004;2024-01-30T09:04:06;3.00;99.90
34985;DHT22;21190;58.750;17.004;2024-01-30T09:06:33;3.00;99.90
34985;DHT22;21190;58.750;17.004;2024-01-30T09:09:00;3.00;99.90
34985;DHT22;21190;58.750;17.004;2024-01-30T09:11:28;3.10;99.90
34985;DHT22;21190;58.750;17.004;2024-01-30T09:13:55;3.10;99.90
34985;DHT22;21190;58.750;17.004;2024-01-30T09:16:22;3.10;99.90
34985;DHT22;21190;58.750;17.004;2024-01-30T09:18:49;3.10;99.90
34985;DHT22;21190;58.750;17.004;2024-01-30T09:21:16;3.10;99.90
34985;DHT22;21190;58.750;17.004;2024-01-30T09:23:44;3.10;99.90
34985;DHT22;21190;58.750;17.004;2024-01-30T09:26:11;3.10;99.90
34985;DHT22;21190;58.750;17.004;2024-01-30T09:28:39;3.10;99.90
34985;DHT22;21190;58.750;17.004;2024-01-30T09:31:11;3.10;99.90
34985;DHT22;21190;58.750;17.004;2024-01-30T09:33:39;3.20;99.90
34985;DHT22;21190;58.750;17.004;2024-01-30T09:36:07;3.20;99.90
34985;DHT22;21190;58.750;17.004;2024-01-30T09:38:34;3.30;99.90
34985;DHT22;21190;58.750;17.004;2024-01-30T09:41:06;3.30;99.90
34985;DHT22;21190;58.750;17.004;2024-01-30T09:43:35;3.30;99.90
34985;DHT22;21190;58.750;17.004;2024-01-30T09:46:04;3.30;99.90
34985;DHT22;21190;58.750;17.004;2024-01-30T09:48:33;3.30;99.90
34985;DHT22;21190;58.750;17.004;2024-01-30T09:51:02;3.30;99.90
34985;DHT22;21190;58.750;17.004;2024-01-30T09:53:30;3.30;99.90
34985;DHT22;21190;58.750;17.004;2024-01-30T09:55:57;3.30;99.90
34985;DHT22;21190;58.750;17.004;2024-01-30T09:58:24;3.30;99.90
34985;DHT22;21190;58.750;17.004;2024-01-30T10:00:53;3.40;99.90
34985;DHT22;21190;58.750;17.004;2024-01-30T10:03:24;3.50;99.90
34985;DHT22;21190;58.750;17.004;2024-01-30T10:05:52;3.50;99.90
34985;DHT22;21190;58.750;17.004;2024-01-30T10:08:20;3.50;99.90
34985;DHT22;21190;58.750;17.004;2024-01-30T10:10:47;3.50;99.90
34985;DHT22;21190;58.750;17.004;2024-01-30T10:13:15;3.50;99.90
34985;DHT22;21190;58.750;17.004;2024-01-30T10:15:42;3.50;99.90
34985;DHT22;21190;58.750;17.004;2024-01-30T10:18:10;3.50;99.90
34985;DHT22;21190;58.750;17.004;2024-01-30T10:20:37;3.50;99.90
34985;DHT22;21190;58.750;17.004;2024-01-30T10:23:05;3.50;99.90
34985;DHT22;21190;58.750;17.004;2024-01-30T10:25:32;3.50;99.90
34985;DHT22;21190;58.750;17.004;2024-01-30T10:27:59;3.50;99.90
34985;DHT22;21190;58.750;17.004;2024-01-30T10:30:27;3.50;99.90
34985;DHT22;21190;58.750;17.004;2024-01-30T10:32:54;3.60;99.90
34985;DHT22;21190;58.750;17.004;2024-01-30T10:35:22;3.60;99.90
34985;DHT22;21190;58.750;17.004;2024-01-30T10:37:49;3.60;99.90
34985;DHT22;21190;58.750;17.004;2024-01-30T10:40:17;3.60;99.90
34985;DHT22;21190;58.750;17.004;2024-01-30T10:42:47;3.70;99.90
34985;DHT22;21190;58.750;17.004;2024-01-30T10:45:16;3.70;99.90
34985;DHT22;21190;58.750;17.004;2024-01-30T10:47:50;3.80;99.90
34985;DHT22;21190;58.750;17.004;2024-01-30T10:50:20;3.80;99.90
34985;DHT22;21190;58.750;17.004;2024-01-30T10:52:47;3.80;99.90
34985;DHT22;21190;58.750;17.004;2024-01-30T10:55:16;3.80;99.90
34985;DHT22;21190;58.750;17.004;2024-01-30T10:57:43;3.80;99.90
34985;DHT22;21190;58.750;17.004;2024-01-30T11:00:13;3.80;99.90
34985;DHT22;21190;58.750;17.004;2024-01-30T11:02:46;3.80;99.90
34985;DHT22;21190;58.750;17.004;2024-01-30T11:05:14;3.80;99.90
34985;DHT22;21190;58.750;17.004;2024-01-30T11:07:43;3.80;99.90
34985;DHT22;21190;58.750;17.004;2024-01-30T11:10:12;3.80;99.90
34985;DHT22;21190;58.750;17.004;2024-01-30T11:12:42;3.90;99.90
34985;DHT22;21190;58.750;17.004;2024-01-30T11:15:13;3.90;99.90
34985;DHT22;21190;58.750;17.004;2024-01-30T11:17:50;4.00;99.90
34985;DHT22;21190;58.750;17.004;2024-01-30T11:20:25;4.00;99.90
34985;DHT22;21190;58.750;17.004;2024-01-30T11:22:56;4.10;99.90
34985;DHT22;21190;58.750;17.004;2024-01-30T11:25:25;4.10;99.90
34985;DHT22;21190;58.750;17.004;2024-01-30T11:27:53;4.10;99.90
34985;DHT22;21190;58.750;17.004;2024-01-30T11:30:22;4.00;99.90
34985;DHT22;21190;58.750;17.004;2024-01-30T11:33:00;4.10;99.90
34985;DHT22;21190;58.750;17.004;2024-01-30T11:35:33;4.10;99.90
34985;DHT22;21190;58.750;17.004;2024-01-30T11:38:01;4.10;99.90
34985;DHT22;21190;58.750;17.004;2024-01-30T11:40:30;4.10;99.90
34985;DHT22;21190;58.750;17.004;2024-01-30T11:42:59;4.20;99.90
34985;DHT22;21190;58.750;17.004;2024-01-30T11:45:27;4.20;99.90
34985;DHT22;21190;58.750;17.004;2024-01-30T11:47:54;4.20;99.90
34985;DHT22;21190;58.750;17.004;2024-01-30T11:50:22;4.20;99.90
34985;DHT22;21190;58.750;17.004;2024-01-30T11:52:50;4.10;99.90
34985;DHT22;21190;58.750;17.004;2024-01-30T11:55:17;4.20;99.90
34985;DHT22;21190;58.750;17.004;2024-01-30T11:57:45;4.10;99.90
34985;DHT22;21190;58.750;17.004;2024-01-30T12:00:17;4.10;99.90
34985;DHT22;21190;58.750;17.004;2024-01-30T12:02:53;4.20;99.90
34985;DHT22;21190;58.750;17.004;2024-01-30T12:05:24;4.10;99.90
34985;DHT22;21190;58.750;17.004;2024-01-30T12:07:52;4.10;99.90
34985;DHT22;21190;58.750;17.004;2024-01-30T12:10:21;4.10;99.90
34985;DHT22;21190;58.750;17.004;2024-01-30T12:12:51;4.10;99.90
34985;DHT22;21190;58.750;17.004;2024-01-30T12:15:21;4.10;99.90
34985;DHT22;21190;58.750;17.004;2024-01-30T12:17:48;4.10;99.90
34985;DHT22;21190;58.750;17.004;2024-01-30T12:20:19;4.10;99.90
34985;DHT22;21190;58.750;17.004;2024-01-30T12:22:49;4.10;99.90
34985;DHT22;21190;58.750;17.004;2024-01-30T12:25:20;4.10;99.90
34985;DHT22;21190;58.750;17.004;2024-01-30T12:27:49;4.10;99.90
34985;DHT22;21190;58.750;17.004;2024-01-30T12:30:20;4.20;99.90
34985;DHT22;21190;58.750;17.004;2024-01-30T12:32:50;4.20;99.90
34985;DHT22;21190;58.750;17.004;2024-01-30T12:35:19;4.20;99.90
34985;DHT22;21190;58.750;17.004;2024-01-30T12:37:48;4.20;99.90
34985;DHT22;21190;58.750;17.004;2024-01-30T12:40:16;4.20;99.90
34985;DHT22;21190;58.750;17.004;2024-01-30T12:42:46;4.20;99.90
34985;DHT22;21190;58.750;17.004;2024-01-30T12:45:16;4.20;99.90
34985;DHT22;21190;58.750;17.004;2024-01-30T12:47:47;4.20;99.90
34985;DHT22;21190;58.750;17.004;2024-01-30T12:50:15;4.20;99.90
34985;DHT22;21190;58.750;17.004;2024-01-30T12:52:46;4.20;99.90
34985;DHT22;21190;58.750;17.004;2024-01-30T12:55:16;4.20;99.90
34985;DHT22;21190;58.750;17.004;2024-01-30T12:57:43;4.20;99.90
34985;DHT22;21190;58.750;17.004;2024-01-30T13:00:11;4.20;99.90
34985;DHT22;21190;58.750;17.004;2024-01-30T13:02:38;4.20;99.90
34985;DHT22;21190;58.750;17.004;2024-01-30T13:05:05;4.20;99.90
34985;DHT22;21190;58.750;17.004;2024-01-30T13:07:33;4.20;99.90
34985;DHT22;21190;58.750;17.004;2024-01-30T13:10:01;4.20;99.90
34985;DHT22;21190;58.750;17.004;2024-01-30T13:12:30;4.10;99.90
34985;DHT22;21190;58.750;17.004;2024-01-30T13:14:59;4.20;99.90
34985;DHT22;21190;58.750;17.004;2024-01-30T13:17:28;4.20;99.90
34985;DHT22;21190;58.750;17.004;2024-01-30T13:19:55;4.20;99.90
34985;DHT22;21190;58.750;17.004;2024-01-30T13:22:33;4.20;99.90
34985;DHT22;21190;58.750;17.004;2024-01-30T13:25:01;4.20;99.90
34985;DHT22;21190;58.750;17.004;2024-01-30T13:27:28;4.20;99.90
34985;DHT22;21190;58.750;17.004;2024-01-30T13:29:55;4.20;99.90
34985;DHT22;21190;58.750;17.004;2024-01-30T13:32:22;4.10;99.90
34985;DHT22;21190;58.750;17.004;2024-01-30T13:34:49;4.10;99.90
34985;DHT22;21190;58.750;17.004;2024-01-30T13:37:17;4.10;99.90
34985;DHT22;21190;58.750;17.004;2024-01-30T13:39:45;4.20;99.90
34985;DHT22;21190;58.750;17.004;2024-01-30T13:42:12;4.10;99.90
34985;DHT22;21190;58.750;17.004;2024-01-30T13:44:39;4.10;99.90
34985;DHT22;21190;58.750;17.004;2024-01-30T13:47:07;4.10;99.90
34985;DHT22;21190;58.750;17.004;2024-01-30T13:49:34;4.10;99.90
34985;DHT22;21190;58.750;17.004;2024-01-30T13:52:01;4.10;99.90
34985;DHT22;21190;58.750;17.004;2024-01-30T13:54:30;4.00;99.90
34985;DHT22;21190;58.750;17.004;2024-01-30T13:56:57;4.00;99.90
34985;DHT22;21190;58.750;17.004;2024-01-30T13:59:25;4.00;99.90
34985;DHT22;21190;58.750;17.004;2024-01-30T14:01:52;3.90;99.90
34985;DHT22;21190;58.750;17.004;2024-01-30T14:04:20;3.90;99.90
34985;DHT22;21190;58.750;17.004;2024-01-30T14:06:47;3.90;99.90
34985;DHT22;21190;58.750;17.004;2024-01-30T14:09:26;3.90;99.90
34985;DHT22;21190;58.750;17.004;2024-01-30T14:11:53;3.90;99.90
34985;DHT22;21190;58.750;17.004;2024-01-30T14:14:20;3.90;99.90
34985;DHT22;21190;58.750;17.004;2024-01-30T14:16:47;4.00;99.90
34985;DHT22;21190;58.750;17.004;2024-01-30T14:19:14;4.00;99.90
34985;DHT22;21190;58.750;17.004;2024-01-30T14:21:42;3.90;99.90
34985;DHT22;21190;58.750;17.004;2024-01-30T14:24:10;3.90;99.90
34985;DHT22;21190;58.750;17.004;2024-01-30T14:26:37;3.90;99.90
34985;DHT22;21190;58.750;17.004;2024-01-30T14:29:04;3.90;99.90
34985;DHT22;21190;58.750;17.004;2024-01-30T14:31:32;3.80;99.90
34985;DHT22;21190;58.750;17.004;2024-01-30T14:33:59;3.80;99.90
34985;DHT22;21190;58.750;17.004;2024-01-30T14:36:27;3.80;99.90
34985;DHT22;21190;58.750;17.004;2024-01-30T14:38:55;3.80;99.90
34985;DHT22;21190;58.750;17.004;2024-01-30T14:41:23;3.70;99.90
34985;DHT22;21190;58.750;17.004;2024-01-30T14:43:50;3.60;99.90
34985;DHT22;21190;58.750;17.004;2024-01-30T14:46:17;3.60;99.90
34985;DHT22;21190;58.750;17.004;2024-01-30T14:48:45;3.50;99.90
34985;DHT22;21190;58.750;17.004;2024-01-30T14:51:12;3.50;99.90
34985;DHT22;21190;58.750;17.004;2024-01-30T14:53:39;3.50;99.90
34985;DHT22;21190;58.750;17.004;2024-01-30T14:56:06;3.40;99.90
34985;DHT22;21190;58.750;17.004;2024-01-30T14:58:34;3.40;99.90
34985;DHT22;21190;58.750;17.004;2024-01-30T15:01:02;3.40;99.90
34985;DHT22;21190;58.750;17.004;2024-01-30T15:03:29;3.30;99.90
34985;DHT22;21190;58.750;17.004;2024-01-30T15:05:56;3.40;99.90
34985;DHT22;21190;58.750;17.004;2024-01-30T15:08:24;3.30;99.90
34985;DHT22;21190;58.750;17.004;2024-01-30T15:10:51;3.30;99.90
34985;DHT22;21190;58.750;17.004;2024-01-30T15:13:19;3.30;99.90
34985;DHT22;21190;58.750;17.004;2024-01-30T15:15:46;3.30;99.90
34985;DHT22;21190;58.750;17.004;2024-01-30T15:18:14;3.20;99.90
34985;DHT22;21190;58.750;17.004;2024-01-30T15:20:41;3.20;99.90
34985;DHT22;21190;58.750;17.004;2024-01-30T15:23:08;3.20;99.90
34985;DHT22;21190;58.750;17.004;2024-01-30T15:25:35;3.20;99.90
34985;DHT22;21190;58.750;17.004;2024-01-30T15:28:03;3.20;99.90
34985;DHT22;21190;58.750;17.004;2024-01-30T15:30:30;3.20;99.90
34985;DHT22;21190;58.750;17.004;2024-01-30T15:32:57;3.10;99.90
34985;DHT22;21190;58.750;17.004;2024-01-30T15:35:24;3.10;99.90
34985;DHT22;21190;58.750;17.004;2024-01-30T15:37:52;3.10;99.90